sensor_id;sensor_type;location;lat;lon;timestamp;P1;durP1;ratioP1;P2;durP2;ratioP2
60243;SDS011;46106;51.468;5.814;2022-07-29T00:01:33;10.55;;;1.38;;
60243;SDS011;46106;51.468;5.814;2022-07-29T00:03:59;4.30;;;1.30;;
60243;SDS011;46106;51.468;5.814;2022-07-29T00:06:24;4.78;;;0.93;;
60243;SDS011;46106;51.468;5.814;2022-07-29T00:08:49;3.90;;;1.00;;
60243;SDS011;46106;51.468;5.814;2022-07-29T00:11:15;6.50;;;1.00;;
60243;SDS011;46106;51.468;5.814;2022-07-29T00:13:40;8.35;;;1.33;;
60243;SDS011;46106;51.468;5.814;2022-07-29T00:16:06;6.28;;;1.08;;
60243;SDS011;46106;51.468;5.814;2022-07-29T00:18:31;7.72;;;1.38;;
60243;SDS011;46106;51.468;5.814;2022-07-29T00:20:57;12.38;;;1.38;;
60243;SDS011;46106;51.468;5.814;2022-07-29T00:23:23;7.93;;;1.42;;
60243;SDS011;46106;51.468;5.814;2022-07-29T00:25:48;5.32;;;2.03;;
60243;SDS011;46106;51.468;5.814;2022-07-29T00:28:14;25.70;;;3.88;;
60243;SDS011;46106;51.468;5.814;2022-07-29T00:30:39;16.00;;;4.05;;
60243;SDS011;46106;51.468;5.814;2022-07-29T00:33:08;30.38;;;5.97;;
60243;SDS011;46106;51.468;5.814;2022-07-29T00:35:34;20.30;;;4.60;;
60243;SDS011;46106;51.468;5.814;2022-07-29T00:38:15;13.20;;;3.75;;
60243;SDS011;46106;51.468;5.814;2022-07-29T00:40:42;16.08;;;4.35;;
60243;SDS011;46106;51.468;5.814;2022-07-29T00:43:08;12.30;;;3.85;;
60243;SDS011;46106;51.468;5.814;2022-07-29T00:45:34;9.70;;;4.05;;
60243;SDS011;46106;51.468;5.814;2022-07-29T00:48:00;15.52;;;5.80;;
60243;SDS011;46106;51.468;5.814;2022-07-29T00:50:26;8.30;;;5.15;;
60243;SDS011;46106;51.468;5.814;2022-07-29T00:52:52;11.60;;;3.95;;
60243;SDS011;46106;51.468;5.814;2022-07-29T00:55:18;10.20;;;5.10;;
60243;SDS011;46106;51.468;5.814;2022-07-29T00:57:43;10.43;;;4.72;;
60243;SDS011;46106;51.468;5.814;2022-07-29T01:00:12;9.73;;;4.82;;
60243;SDS011;46106;51.468;5.814;2022-07-29T01:02:40;12.68;;;5.60;;
60243;SDS011;46106;51.468;5.814;2022-07-29T01:05:06;12.18;;;5.57;;
60243;SDS011;46106;51.468;5.814;2022-07-29T01:07:33;18.25;;;7.47;;
60243;SDS011;46106;51.468;5.814;2022-07-29T01:10:01;23.95;;;9.55;;
60243;SDS011;46106;51.468;5.814;2022-07-29T01:12:28;21.15;;;7.75;;
60243;SDS011;46106;51.468;5.814;2022-07-29T01:14:58;21.65;;;7.63;;
60243;SDS011;46106;51.468;5.814;2022-07-29T01:20:31;31.20;;;10.43;;
60243;SDS011;46106;51.468;5.814;2022-07-29T01:32:03;44.55;;;12.48;;
60243;SDS011;46106;51.468;5.814;2022-07-29T01:37:20;23.55;;;9.32;;
60243;SDS011;46106;51.468;5.814;2022-07-29T01:39:52;18.98;;;9.13;;
60243;SDS011;46106;51.468;5.814;2022-07-29T01:44:57;14.68;;;6.80;;
60243;SDS011;46106;51.468;5.814;2022-07-29T01:47:31;16.27;;;6.50;;
60243;SDS011;46106;51.468;5.814;2022-07-29T01:52:47;10.00;;;5.25;;
60243;SDS011;46106;51.468;5.814;2022-07-29T01:55:17;5.90;;;4.68;;
60243;SDS011;46106;51.468;5.814;2022-07-29T01:57:47;8.88;;;4.97;;
60243;SDS011;46106;51.468;5.814;2022-07-29T02:00:15;7.30;;;4.72;;
60243;SDS011;46106;51.468;5.814;2022-07-29T02:02:42;12.38;;;5.85;;
60243;SDS011;46106;51.468;5.814;2022-07-29T02:05:10;5.43;;;3.65;;
60243;SDS011;46106;51.468;5.814;2022-07-29T02:07:42;8.70;;;5.22;;
60243;SDS011;46106;51.468;5.814;2022-07-29T02:10:11;10.15;;;5.25;;
60243;SDS011;46106;51.468;5.814;2022-07-29T02:12:38;11.27;;;4.72;;
60243;SDS011;46106;51.468;5.814;2022-07-29T02:15:05;11.18;;;4.28;;
60243;SDS011;46106;51.468;5.814;2022-07-29T02:17:33;7.93;;;4.43;;
60243;SDS011;46106;51.468;5.814;2022-07-29T02:20:04;11.60;;;4.55;;
60243;SDS011;46106;51.468;5.814;2022-07-29T02:22:31;8.43;;;4.35;;
60243;SDS011;46106;51.468;5.814;2022-07-29T02:25:00;7.88;;;5.20;;
60243;SDS011;46106;51.468;5.814;2022-07-29T02:27:26;16.45;;;4.57;;
60243;SDS011;46106;51.468;5.814;2022-07-29T02:29:54;11.10;;;5.47;;
60243;SDS011;46106;51.468;5.814;2022-07-29T02:32:23;12.18;;;5.10;;
60243;SDS011;46106;51.468;5.814;2022-07-29T02:34:50;10.90;;;4.45;;
60243;SDS011;46106;51.468;5.814;2022-07-29T02:37:17;8.43;;;3.85;;
60243;SDS011;46106;51.468;5.814;2022-07-29T02:39:43;7.93;;;4.10;;
60243;SDS011;46106;51.468;5.814;2022-07-29T02:42:11;10.18;;;5.28;;
60243;SDS011;46106;51.468;5.814;2022-07-29T02:44:40;9.10;;;5.03;;
60243;SDS011;46106;51.468;5.814;2022-07-29T02:49:38;8.25;;;5.55;;
60243;SDS011;46106;51.468;5.814;2022-07-29T02:52:16;8.32;;;5.00;;
60243;SDS011;46106;51.468;5.814;2022-07-29T02:55:08;9.40;;;4.43;;
60243;SDS011;46106;51.468;5.814;2022-07-29T02:57:44;13.80;;;4.47;;
60243;SDS011;46106;51.468;5.814;2022-07-29T03:00:16;12.32;;;5.30;;
60243;SDS011;46106;51.468;5.814;2022-07-29T03:02:45;11.55;;;5.03;;
60243;SDS011;46106;51.468;5.814;2022-07-29T03:05:15;11.77;;;4.80;;
60243;SDS011;46106;51.468;5.814;2022-07-29T03:07:49;12.23;;;5.72;;
60243;SDS011;46106;51.468;5.814;2022-07-29T03:10:18;13.35;;;5.60;;
60243;SDS011;46106;51.468;5.814;2022-07-29T03:12:44;12.43;;;5.68;;
60243;SDS011;46106;51.468;5.814;2022-07-29T03:15:10;7.78;;;5.57;;
60243;SDS011;46106;51.468;5.814;2022-07-29T03:17:36;10.77;;;6.00;;
60243;SDS011;46106;51.468;5.814;2022-07-29T03:20:03;12.90;;;6.28;;
60243;SDS011;46106;51.468;5.814;2022-07-29T03:22:29;9.23;;;4.65;;
60243;SDS011;46106;51.468;5.814;2022-07-29T03:24:57;8.63;;;5.30;;
60243;SDS011;46106;51.468;5.814;2022-07-29T03:27:22;8.65;;;4.63;;
60243;SDS011;46106;51.468;5.814;2022-07-29T03:29:48;11.73;;;5.18;;
60243;SDS011;46106;51.468;5.814;2022-07-29T03:32:13;11.50;;;6.75;;
60243;SDS011;46106;51.468;5.814;2022-07-29T03:34:39;12.00;;;6.18;;
60243;SDS011;46106;51.468;5.814;2022-07-29T03:37:05;14.05;;;7.15;;
60243;SDS011;46106;51.468;5.814;2022-07-29T03:39:32;10.48;;;5.13;;
60243;SDS011;46106;51.468;5.814;2022-07-29T03:42:01;6.85;;;5.32;;
60243;SDS011;46106;51.468;5.814;2022-07-29T03:44:30;9.85;;;5.90;;
60243;SDS011;46106;51.468;5.814;2022-07-29T03:46:57;14.05;;;7.85;;
60243;SDS011;46106;51.468;5.814;2022-07-29T03:49:27;7.60;;;6.13;;
60243;SDS011;46106;51.468;5.814;2022-07-29T03:51:53;11.25;;;7.10;;
60243;SDS011;46106;51.468;5.814;2022-07-29T03:54:19;13.43;;;6.65;;
60243;SDS011;46106;51.468;5.814;2022-07-29T03:56:45;10.82;;;6.43;;
60243;SDS011;46106;51.468;5.814;2022-07-29T03:59:13;13.43;;;9.07;;
60243;SDS011;46106;51.468;5.814;2022-07-29T04:01:40;12.75;;;6.57;;
60243;SDS011;46106;51.468;5.814;2022-07-29T04:04:06;10.60;;;7.85;;
60243;SDS011;46106;51.468;5.814;2022-07-29T04:06:41;14.57;;;8.50;;
60243;SDS011;46106;51.468;5.814;2022-07-29T04:09:08;10.35;;;7.13;;
60243;SDS011;46106;51.468;5.814;2022-07-29T04:11:34;15.57;;;7.97;;
60243;SDS011;46106;51.468;5.814;2022-07-29T04:14:01;11.38;;;7.75;;
60243;SDS011;46106;51.468;5.814;2022-07-29T04:16:26;18.40;;;8.55;;
60243;SDS011;46106;51.468;5.814;2022-07-29T04:18:52;14.75;;;8.90;;
60243;SDS011;46106;51.468;5.814;2022-07-29T04:21:17;11.27;;;7.82;;
60243;SDS011;46106;51.468;5.814;2022-07-29T04:23:43;13.77;;;8.68;;
60243;SDS011;46106;51.468;5.814;2022-07-29T04:26:10;13.50;;;8.05;;
60243;SDS011;46106;51.468;5.814;2022-07-29T04:28:36;14.80;;;9.10;;
60243;SDS011;46106;51.468;5.814;2022-07-29T04:31:04;11.82;;;7.43;;
60243;SDS011;46106;51.468;5.814;2022-07-29T04:33:30;20.42;;;8.02;;
60243;SDS011;46106;51.468;5.814;2022-07-29T04:35:56;19.13;;;8.35;;
60243;SDS011;46106;51.468;5.814;2022-07-29T04:38:21;11.30;;;7.18;;
60243;SDS011;46106;51.468;5.814;2022-07-29T04:40:47;16.60;;;8.00;;
60243;SDS011;46106;51.468;5.814;2022-07-29T04:43:13;12.98;;;8.68;;
60243;SDS011;46106;51.468;5.814;2022-07-29T04:45:40;17.60;;;8.40;;
60243;SDS011;46106;51.468;5.814;2022-07-29T04:48:05;12.70;;;8.27;;
60243;SDS011;46106;51.468;5.814;2022-07-29T04:50:31;10.55;;;8.50;;
60243;SDS011;46106;51.468;5.814;2022-07-29T04:52:57;12.23;;;9.23;;
60243;SDS011;46106;51.468;5.814;2022-07-29T04:55:23;15.30;;;10.13;;
60243;SDS011;46106;51.468;5.814;2022-07-29T04:57:49;21.30;;;10.57;;
60243;SDS011;46106;51.468;5.814;2022-07-29T05:00:15;14.55;;;8.82;;
60243;SDS011;46106;51.468;5.814;2022-07-29T05:02:41;12.38;;;8.85;;
60243;SDS011;46106;51.468;5.814;2022-07-29T05:05:06;19.02;;;9.85;;
60243;SDS011;46106;51.468;5.814;2022-07-29T05:07:34;15.93;;;8.93;;
60243;SDS011;46106;51.468;5.814;2022-07-29T05:09:59;15.85;;;8.52;;
60243;SDS011;46106;51.468;5.814;2022-07-29T05:12:25;15.25;;;10.15;;
60243;SDS011;46106;51.468;5.814;2022-07-29T05:14:51;16.80;;;9.38;;
60243;SDS011;46106;51.468;5.814;2022-07-29T05:17:17;17.65;;;8.20;;
60243;SDS011;46106;51.468;5.814;2022-07-29T05:19:42;12.55;;;10.35;;
60243;SDS011;46106;51.468;5.814;2022-07-29T05:22:08;17.10;;;11.07;;
60243;SDS011;46106;51.468;5.814;2022-07-29T05:24:34;16.42;;;11.30;;
60243;SDS011;46106;51.468;5.814;2022-07-29T05:26:59;21.08;;;11.65;;
60243;SDS011;46106;51.468;5.814;2022-07-29T05:29:24;17.52;;;11.43;;
60243;SDS011;46106;51.468;5.814;2022-07-29T05:31:50;13.40;;;9.02;;
60243;SDS011;46106;51.468;5.814;2022-07-29T05:34:17;20.33;;;11.35;;
60243;SDS011;46106;51.468;5.814;2022-07-29T05:36:44;19.73;;;10.77;;
60243;SDS011;46106;51.468;5.814;2022-07-29T05:39:10;20.95;;;9.57;;
60243;SDS011;46106;51.468;5.814;2022-07-29T05:41:36;21.67;;;9.80;;
60243;SDS011;46106;51.468;5.814;2022-07-29T05:44:01;14.30;;;9.88;;
60243;SDS011;46106;51.468;5.814;2022-07-29T05:46:27;15.25;;;10.63;;
60243;SDS011;46106;51.468;5.814;2022-07-29T05:48:54;15.68;;;8.98;;
60243;SDS011;46106;51.468;5.814;2022-07-29T05:51:20;15.35;;;8.55;;
60243;SDS011;46106;51.468;5.814;2022-07-29T05:53:45;22.10;;;12.13;;
60243;SDS011;46106;51.468;5.814;2022-07-29T05:56:10;16.13;;;11.40;;
60243;SDS011;46106;51.468;5.814;2022-07-29T05:58:36;21.10;;;12.40;;
60243;SDS011;46106;51.468;5.814;2022-07-29T06:01:01;18.60;;;11.88;;
60243;SDS011;46106;51.468;5.814;2022-07-29T06:03:27;23.45;;;12.13;;
60243;SDS011;46106;51.468;5.814;2022-07-29T06:05:53;24.35;;;11.75;;
60243;SDS011;46106;51.468;5.814;2022-07-29T06:08:19;20.77;;;12.77;;
60243;SDS011;46106;51.468;5.814;2022-07-29T06:10:45;23.77;;;11.60;;
60243;SDS011;46106;51.468;5.814;2022-07-29T06:13:11;21.00;;;11.45;;
60243;SDS011;46106;51.468;5.814;2022-07-29T06:15:37;27.92;;;12.70;;
60243;SDS011;46106;51.468;5.814;2022-07-29T06:18:02;17.38;;;10.25;;
60243;SDS011;46106;51.468;5.814;2022-07-29T06:20:28;21.65;;;11.45;;
60243;SDS011;46106;51.468;5.814;2022-07-29T06:22:55;19.55;;;11.25;;
60243;SDS011;46106;51.468;5.814;2022-07-29T06:25:21;18.17;;;10.63;;
60243;SDS011;46106;51.468;5.814;2022-07-29T06:27:47;26.98;;;12.07;;
60243;SDS011;46106;51.468;5.814;2022-07-29T06:30:12;18.08;;;12.00;;
60243;SDS011;46106;51.468;5.814;2022-07-29T06:32:38;19.17;;;11.30;;
60243;SDS011;46106;51.468;5.814;2022-07-29T06:35:05;27.75;;;13.25;;
60243;SDS011;46106;51.468;5.814;2022-07-29T06:37:31;18.98;;;12.07;;
60243;SDS011;46106;51.468;5.814;2022-07-29T06:39:56;26.35;;;13.85;;
60243;SDS011;46106;51.468;5.814;2022-07-29T06:42:57;19.70;;;12.52;;
60243;SDS011;46106;51.468;5.814;2022-07-29T06:45:23;14.35;;;11.18;;
60243;SDS011;46106;51.468;5.814;2022-07-29T06:47:49;20.50;;;11.95;;
60243;SDS011;46106;51.468;5.814;2022-07-29T06:50:15;22.77;;;11.48;;
60243;SDS011;46106;51.468;5.814;2022-07-29T06:52:41;23.92;;;11.80;;
60243;SDS011;46106;51.468;5.814;2022-07-29T06:55:06;19.05;;;12.15;;
60243;SDS011;46106;51.468;5.814;2022-07-29T06:57:32;19.50;;;13.50;;
60243;SDS011;46106;51.468;5.814;2022-07-29T06:59:58;22.80;;;13.35;;
60243;SDS011;46106;51.468;5.814;2022-07-29T07:02:24;18.15;;;12.55;;
60243;SDS011;46106;51.468;5.814;2022-07-29T07:04:49;19.85;;;12.02;;
60243;SDS011;46106;51.468;5.814;2022-07-29T07:07:15;17.88;;;12.25;;
60243;SDS011;46106;51.468;5.814;2022-07-29T07:09:40;20.05;;;12.52;;
60243;SDS011;46106;51.468;5.814;2022-07-29T07:12:06;25.23;;;14.48;;
60243;SDS011;46106;51.468;5.814;2022-07-29T07:14:32;18.77;;;11.10;;
60243;SDS011;46106;51.468;5.814;2022-07-29T07:16:57;18.23;;;10.88;;
60243;SDS011;46106;51.468;5.814;2022-07-29T07:19:25;21.95;;;11.20;;
60243;SDS011;46106;51.468;5.814;2022-07-29T07:21:54;16.65;;;10.98;;
60243;SDS011;46106;51.468;5.814;2022-07-29T07:24:20;22.52;;;11.20;;
60243;SDS011;46106;51.468;5.814;2022-07-29T07:26:46;21.73;;;11.07;;
60243;SDS011;46106;51.468;5.814;2022-07-29T07:29:11;15.25;;;9.93;;
60243;SDS011;46106;51.468;5.814;2022-07-29T07:31:38;15.90;;;10.55;;
60243;SDS011;46106;51.468;5.814;2022-07-29T07:34:04;12.95;;;10.82;;
60243;SDS011;46106;51.468;5.814;2022-07-29T07:36:29;14.95;;;9.05;;
60243;SDS011;46106;51.468;5.814;2022-07-29T07:38:55;13.90;;;9.93;;
60243;SDS011;46106;51.468;5.814;2022-07-29T07:41:21;15.52;;;9.98;;
60243;SDS011;46106;51.468;5.814;2022-07-29T07:43:47;16.27;;;10.00;;
60243;SDS011;46106;51.468;5.814;2022-07-29T07:46:13;13.10;;;9.20;;
60243;SDS011;46106;51.468;5.814;2022-07-29T07:48:39;16.45;;;8.65;;
60243;SDS011;46106;51.468;5.814;2022-07-29T07:51:05;12.73;;;8.43;;
60243;SDS011;46106;51.468;5.814;2022-07-29T07:53:31;12.02;;;9.43;;
60243;SDS011;46106;51.468;5.814;2022-07-29T07:55:57;11.95;;;8.88;;
60243;SDS011;46106;51.468;5.814;2022-07-29T07:58:22;14.63;;;9.93;;
60243;SDS011;46106;51.468;5.814;2022-07-29T08:00:47;12.35;;;8.75;;
60243;SDS011;46106;51.468;5.814;2022-07-29T08:03:13;17.38;;;9.02;;
60243;SDS011;46106;51.468;5.814;2022-07-29T08:05:39;12.48;;;8.63;;
60243;SDS011;46106;51.468;5.814;2022-07-29T08:08:05;12.73;;;8.85;;
60243;SDS011;46106;51.468;5.814;2022-07-29T08:10:32;12.63;;;7.32;;
60243;SDS011;46106;51.468;5.814;2022-07-29T08:13:19;14.35;;;8.02;;
60243;SDS011;46106;51.468;5.814;2022-07-29T08:15:46;9.73;;;7.05;;
60243;SDS011;46106;51.468;5.814;2022-07-29T08:18:13;12.77;;;7.53;;
60243;SDS011;46106;51.468;5.814;2022-07-29T08:20:39;12.57;;;6.68;;
60243;SDS011;46106;51.468;5.814;2022-07-29T08:23:05;9.00;;;6.70;;
60243;SDS011;46106;51.468;5.814;2022-07-29T08:25:33;14.45;;;5.50;;
60243;SDS011;46106;51.468;5.814;2022-07-29T08:28:00;12.75;;;6.18;;
60243;SDS011;46106;51.468;5.814;2022-07-29T08:30:26;11.32;;;5.55;;
60243;SDS011;46106;51.468;5.814;2022-07-29T08:32:52;8.88;;;6.25;;
60243;SDS011;46106;51.468;5.814;2022-07-29T08:35:18;11.25;;;5.72;;
60243;SDS011;46106;51.468;5.814;2022-07-29T08:37:45;12.27;;;5.32;;
60243;SDS011;46106;51.468;5.814;2022-07-29T08:40:11;11.65;;;6.45;;
60243;SDS011;46106;51.468;5.814;2022-07-29T08:42:37;10.93;;;5.60;;
60243;SDS011;46106;51.468;5.814;2022-07-29T08:45:03;11.40;;;6.05;;
60243;SDS011;46106;51.468;5.814;2022-07-29T08:47:30;14.43;;;5.88;;
60243;SDS011;46106;51.468;5.814;2022-07-29T08:49:55;8.05;;;5.82;;
60243;SDS011;46106;51.468;5.814;2022-07-29T08:52:21;10.55;;;6.22;;
60243;SDS011;46106;51.468;5.814;2022-07-29T08:54:50;8.05;;;5.80;;
60243;SDS011;46106;51.468;5.814;2022-07-29T08:57:17;11.68;;;6.72;;
60243;SDS011;46106;51.468;5.814;2022-07-29T08:59:44;8.23;;;6.18;;
60243;SDS011;46106;51.468;5.814;2022-07-29T09:02:19;8.95;;;5.93;;
60243;SDS011;46106;51.468;5.814;2022-07-29T09:04:46;11.75;;;7.07;;
60243;SDS011;46106;51.468;5.814;2022-07-29T09:07:16;7.88;;;6.93;;
60243;SDS011;46106;51.468;5.814;2022-07-29T09:09:44;6.90;;;5.50;;
60243;SDS011;46106;51.468;5.814;2022-07-29T09:12:10;8.82;;;5.30;;
60243;SDS011;46106;51.468;5.814;2022-07-29T09:14:39;11.10;;;5.88;;
60243;SDS011;46106;51.468;5.814;2022-07-29T09:17:05;10.07;;;6.43;;
60243;SDS011;46106;51.468;5.814;2022-07-29T09:19:33;7.03;;;5.93;;
60243;SDS011;46106;51.468;5.814;2022-07-29T09:22:05;13.20;;;5.95;;
60243;SDS011;46106;51.468;5.814;2022-07-29T09:27:07;8.80;;;5.63;;
60243;SDS011;46106;51.468;5.814;2022-07-29T09:29:44;10.90;;;6.10;;
60243;SDS011;46106;51.468;5.814;2022-07-29T09:32:09;13.68;;;5.90;;
60243;SDS011;46106;51.468;5.814;2022-07-29T09:34:38;12.73;;;6.68;;
60243;SDS011;46106;51.468;5.814;2022-07-29T09:37:04;11.90;;;6.00;;
60243;SDS011;46106;51.468;5.814;2022-07-29T09:42:09;11.90;;;5.68;;
60243;SDS011;46106;51.468;5.814;2022-07-29T09:47:11;8.45;;;5.25;;
60243;SDS011;46106;51.468;5.814;2022-07-29T09:49:56;14.65;;;5.93;;
60243;SDS011;46106;51.468;5.814;2022-07-29T09:52:23;8.40;;;5.28;;
60243;SDS011;46106;51.468;5.814;2022-07-29T09:54:50;7.75;;;5.68;;
60243;SDS011;46106;51.468;5.814;2022-07-29T09:57:25;5.82;;;5.28;;
60243;SDS011;46106;51.468;5.814;2022-07-29T10:02:34;10.10;;;5.72;;
60243;SDS011;46106;51.468;5.814;2022-07-29T10:05:02;6.10;;;5.38;;
60243;SDS011;46106;51.468;5.814;2022-07-29T10:07:42;9.43;;;5.03;;
60243;SDS011;46106;51.468;5.814;2022-07-29T10:10:45;6.28;;;4.90;;
60243;SDS011;46106;51.468;5.814;2022-07-29T10:13:10;8.82;;;5.57;;
60243;SDS011;46106;51.468;5.814;2022-07-29T10:15:38;7.25;;;4.88;;
60243;SDS011;46106;51.468;5.814;2022-07-29T10:18:06;11.05;;;5.70;;
60243;SDS011;46106;51.468;5.814;2022-07-29T10:20:33;6.53;;;5.18;;
60243;SDS011;46106;51.468;5.814;2022-07-29T10:23:00;8.02;;;5.68;;
60243;SDS011;46106;51.468;5.814;2022-07-29T10:25:26;8.68;;;5.55;;
60243;SDS011;46106;51.468;5.814;2022-07-29T10:27:52;7.45;;;4.05;;
60243;SDS011;46106;51.468;5.814;2022-07-29T10:30:18;5.13;;;4.45;;
60243;SDS011;46106;51.468;5.814;2022-07-29T10:35:37;7.72;;;4.97;;
60243;SDS011;46106;51.468;5.814;2022-07-29T10:44:03;6.93;;;4.78;;
60243;SDS011;46106;51.468;5.814;2022-07-29T10:46:37;9.23;;;4.40;;
60243;SDS011;46106;51.468;5.814;2022-07-29T10:59:38;7.38;;;4.50;;
60243;SDS011;46106;51.468;5.814;2022-07-29T11:07:32;5.40;;;3.10;;
60243;SDS011;46106;51.468;5.814;2022-07-29T11:10:19;5.53;;;3.63;;
60243;SDS011;46106;51.468;5.814;2022-07-29T11:12:46;10.23;;;4.07;;
60243;SDS011;46106;51.468;5.814;2022-07-29T11:15:13;6.85;;;4.03;;
60243;SDS011;46106;51.468;5.814;2022-07-29T11:23:01;12.15;;;5.40;;
60243;SDS011;46106;51.468;5.814;2022-07-29T11:25:41;8.45;;;6.10;;
60243;SDS011;46106;51.468;5.814;2022-07-29T11:28:13;7.65;;;4.85;;
60243;SDS011;46106;51.468;5.814;2022-07-29T11:30:53;8.23;;;5.63;;
60243;SDS011;46106;51.468;5.814;2022-07-29T11:33:32;10.23;;;5.60;;
60243;SDS011;46106;51.468;5.814;2022-07-29T11:36:11;14.50;;;5.93;;
60243;SDS011;46106;51.468;5.814;2022-07-29T11:38:39;7.35;;;5.57;;
60243;SDS011;46106;51.468;5.814;2022-07-29T11:43:46;8.35;;;5.40;;
60243;SDS011;46106;51.468;5.814;2022-07-29T11:46:16;5.20;;;4.10;;
60243;SDS011;46106;51.468;5.814;2022-07-29T11:49:02;11.07;;;4.35;;
60243;SDS011;46106;51.468;5.814;2022-07-29T11:51:29;9.50;;;4.07;;
60243;SDS011;46106;51.468;5.814;2022-07-29T11:53:55;7.20;;;4.07;;
60243;SDS011;46106;51.468;5.814;2022-07-29T11:56:22;8.07;;;4.15;;
60243;SDS011;46106;51.468;5.814;2022-07-29T11:59:00;7.38;;;3.78;;
60243;SDS011;46106;51.468;5.814;2022-07-29T12:01:29;4.63;;;3.03;;
60243;SDS011;46106;51.468;5.814;2022-07-29T12:04:07;5.05;;;2.55;;
60243;SDS011;46106;51.468;5.814;2022-07-29T12:06:33;4.30;;;3.00;;
60243;SDS011;46106;51.468;5.814;2022-07-29T12:08:59;4.75;;;3.03;;
60243;SDS011;46106;51.468;5.814;2022-07-29T12:11:25;5.65;;;3.63;;
60243;SDS011;46106;51.468;5.814;2022-07-29T12:13:51;8.75;;;3.78;;
60243;SDS011;46106;51.468;5.814;2022-07-29T12:16:18;5.85;;;4.25;;
60243;SDS011;46106;51.468;5.814;2022-07-29T12:18:58;6.18;;;3.90;;
60243;SDS011;46106;51.468;5.814;2022-07-29T12:21:24;7.20;;;3.38;;
60243;SDS011;46106;51.468;5.814;2022-07-29T12:23:53;7.05;;;3.17;;
60243;SDS011;46106;51.468;5.814;2022-07-29T12:26:20;4.55;;;2.15;;
60243;SDS011;46106;51.468;5.814;2022-07-29T12:28:46;4.93;;;3.22;;
60243;SDS011;46106;51.468;5.814;2022-07-29T12:31:15;8.20;;;3.55;;
60243;SDS011;46106;51.468;5.814;2022-07-29T12:33:41;3.88;;;2.80;;
60243;SDS011;46106;51.468;5.814;2022-07-29T12:36:07;5.95;;;3.75;;
60243;SDS011;46106;51.468;5.814;2022-07-29T12:38:34;9.40;;;3.58;;
60243;SDS011;46106;51.468;5.814;2022-07-29T12:41:00;6.18;;;2.90;;
60243;SDS011;46106;51.468;5.814;2022-07-29T12:43:27;8.15;;;3.90;;
60243;SDS011;46106;51.468;5.814;2022-07-29T12:45:53;5.75;;;3.65;;
60243;SDS011;46106;51.468;5.814;2022-07-29T12:48:33;5.25;;;3.17;;
60243;SDS011;46106;51.468;5.814;2022-07-29T12:51:04;4.22;;;3.03;;
60243;SDS011;46106;51.468;5.814;2022-07-29T12:53:31;10.23;;;3.92;;
60243;SDS011;46106;51.468;5.814;2022-07-29T12:55:58;5.25;;;3.40;;
60243;SDS011;46106;51.468;5.814;2022-07-29T12:58:34;8.30;;;3.85;;
60243;SDS011;46106;51.468;5.814;2022-07-29T13:01:08;4.60;;;3.25;;
60243;SDS011;46106;51.468;5.814;2022-07-29T13:06:07;6.33;;;3.47;;
60243;SDS011;46106;51.468;5.814;2022-07-29T13:09:03;6.35;;;4.00;;
60243;SDS011;46106;51.468;5.814;2022-07-29T13:16:59;9.32;;;3.70;;
60243;SDS011;46106;51.468;5.814;2022-07-29T13:19:47;6.93;;;3.78;;
60243;SDS011;46106;51.468;5.814;2022-07-29T13:22:16;4.78;;;3.15;;
60243;SDS011;46106;51.468;5.814;2022-07-29T13:24:47;8.57;;;2.83;;
60243;SDS011;46106;51.468;5.814;2022-07-29T13:27:18;3.72;;;2.35;;
60243;SDS011;46106;51.468;5.814;2022-07-29T13:29:44;5.55;;;2.00;;
60243;SDS011;46106;51.468;5.814;2022-07-29T13:32:11;4.60;;;2.13;;
60243;SDS011;46106;51.468;5.814;2022-07-29T13:34:38;8.50;;;2.08;;
60243;SDS011;46106;51.468;5.814;2022-07-29T13:37:03;9.93;;;2.38;;
60243;SDS011;46106;51.468;5.814;2022-07-29T13:39:29;8.00;;;1.98;;
60243;SDS011;46106;51.468;5.814;2022-07-29T13:41:55;3.20;;;1.70;;
60243;SDS011;46106;51.468;5.814;2022-07-29T13:44:21;5.10;;;2.20;;
60243;SDS011;46106;51.468;5.814;2022-07-29T13:46:46;4.75;;;2.00;;
60243;SDS011;46106;51.468;5.814;2022-07-29T13:49:12;5.57;;;2.25;;
60243;SDS011;46106;51.468;5.814;2022-07-29T13:51:38;4.57;;;1.60;;
60243;SDS011;46106;51.468;5.814;2022-07-29T13:54:03;5.25;;;1.63;;
60243;SDS011;46106;51.468;5.814;2022-07-29T13:56:29;7.97;;;1.80;;
60243;SDS011;46106;51.468;5.814;2022-07-29T13:58:55;6.88;;;1.83;;
60243;SDS011;46106;51.468;5.814;2022-07-29T14:01:22;9.00;;;2.40;;
60243;SDS011;46106;51.468;5.814;2022-07-29T14:03:48;5.82;;;2.88;;
60243;SDS011;46106;51.468;5.814;2022-07-29T14:06:13;6.97;;;2.00;;
60243;SDS011;46106;51.468;5.814;2022-07-29T14:08:38;5.07;;;1.98;;
60243;SDS011;46106;51.468;5.814;2022-07-29T14:11:05;6.60;;;2.20;;
60243;SDS011;46106;51.468;5.814;2022-07-29T14:13:30;9.27;;;2.33;;
60243;SDS011;46106;51.468;5.814;2022-07-29T14:15:56;6.85;;;2.15;;
60243;SDS011;46106;51.468;5.814;2022-07-29T14:18:22;3.65;;;2.00;;
60243;SDS011;46106;51.468;5.814;2022-07-29T14:20:47;6.30;;;1.80;;
60243;SDS011;46106;51.468;5.814;2022-07-29T14:23:13;5.90;;;2.10;;
60243;SDS011;46106;51.468;5.814;2022-07-29T14:25:38;7.60;;;1.95;;
60243;SDS011;46106;51.468;5.814;2022-07-29T14:28:04;2.75;;;1.80;;
60243;SDS011;46106;51.468;5.814;2022-07-29T14:30:29;4.68;;;1.60;;
60243;SDS011;46106;51.468;5.814;2022-07-29T14:32:55;9.63;;;2.05;;
60243;SDS011;46106;51.468;5.814;2022-07-29T14:35:20;4.72;;;1.83;;
60243;SDS011;46106;51.468;5.814;2022-07-29T14:37:46;5.57;;;2.05;;
60243;SDS011;46106;51.468;5.814;2022-07-29T14:40:11;8.82;;;2.83;;
60243;SDS011;46106;51.468;5.814;2022-07-29T14:42:37;6.28;;;2.38;;
60243;SDS011;46106;51.468;5.814;2022-07-29T14:45:07;14.05;;;2.35;;
60243;SDS011;46106;51.468;5.814;2022-07-29T14:47:33;6.43;;;2.53;;
60243;SDS011;46106;51.468;5.814;2022-07-29T14:49:59;4.88;;;2.28;;
60243;SDS011;46106;51.468;5.814;2022-07-29T14:52:24;6.75;;;2.75;;
60243;SDS011;46106;51.468;5.814;2022-07-29T14:54:50;6.18;;;2.53;;
60243;SDS011;46106;51.468;5.814;2022-07-29T14:57:16;5.45;;;2.65;;
60243;SDS011;46106;51.468;5.814;2022-07-29T14:59:41;6.97;;;2.95;;
60243;SDS011;46106;51.468;5.814;2022-07-29T15:02:07;8.60;;;2.60;;
60243;SDS011;46106;51.468;5.814;2022-07-29T15:04:33;6.50;;;2.63;;
60243;SDS011;46106;51.468;5.814;2022-07-29T15:06:58;6.15;;;2.60;;
60243;SDS011;46106;51.468;5.814;2022-07-29T15:09:24;6.68;;;3.05;;
60243;SDS011;46106;51.468;5.814;2022-07-29T15:11:49;6.32;;;2.85;;
60243;SDS011;46106;51.468;5.814;2022-07-29T15:14:14;5.82;;;2.75;;
60243;SDS011;46106;51.468;5.814;2022-07-29T15:16:40;7.05;;;2.33;;
60243;SDS011;46106;51.468;5.814;2022-07-29T15:19:07;4.43;;;3.00;;
60243;SDS011;46106;51.468;5.814;2022-07-29T15:21:36;9.85;;;2.80;;
60243;SDS011;46106;51.468;5.814;2022-07-29T15:24:02;7.18;;;3.00;;
60243;SDS011;46106;51.468;5.814;2022-07-29T15:26:28;4.70;;;2.72;;
60243;SDS011;46106;51.468;5.814;2022-07-29T15:28:53;5.57;;;3.03;;
60243;SDS011;46106;51.468;5.814;2022-07-29T15:31:21;9.00;;;3.25;;
60243;SDS011;46106;51.468;5.814;2022-07-29T15:33:47;5.75;;;2.70;;
60243;SDS011;46106;51.468;5.814;2022-07-29T15:36:12;9.77;;;2.65;;
60243;SDS011;46106;51.468;5.814;2022-07-29T15:38:39;14.18;;;2.70;;
60243;SDS011;46106;51.468;5.814;2022-07-29T15:41:06;6.10;;;2.47;;
60243;SDS011;46106;51.468;5.814;2022-07-29T15:43:32;8.90;;;3.85;;
60243;SDS011;46106;51.468;5.814;2022-07-29T15:45:59;6.47;;;2.70;;
60243;SDS011;46106;51.468;5.814;2022-07-29T15:48:43;7.55;;;2.63;;
60243;SDS011;46106;51.468;5.814;2022-07-29T15:51:09;6.78;;;2.83;;
60243;SDS011;46106;51.468;5.814;2022-07-29T15:53:34;15.60;;;3.25;;
60243;SDS011;46106;51.468;5.814;2022-07-29T15:56:00;18.20;;;2.60;;